createdAt,value
2022-09-20T00:01:17.991Z,99276.03
2022-09-20T00:03:47.374Z,99280.22
2022-09-20T00:06:17.719Z,99274.56
2022-09-20T00:08:45.262Z,99278.09
2022-09-20T00:11:16.766Z,99268.38
2022-09-20T00:13:45.790Z,99265.63
2022-09-20T00:16:16.962Z,99274.31
2022-09-20T00:18:43.922Z,99265.66
2022-09-20T00:21:18.189Z,99261.38
2022-09-20T00:23:45.422Z,99265.78
2022-09-20T00:26:13.822Z,99271.75
2022-09-20T00:28:41.592Z,99275.75
2022-09-20T00:31:08.424Z,99276.66
2022-09-20T00:33:53.786Z,99271.22
2022-09-20T00:36:20.426Z,99263.28
2022-09-20T00:38:47.359Z,99266.13
2022-09-20T00:41:14.218Z,99260.84
2022-09-20T00:43:46.274Z,99268.78
2022-09-20T00:46:36.715Z,99266.91
2022-09-20T00:49:16.258Z,99269.19
2022-09-20T00:51:50.554Z,99270.72
2022-09-20T00:54:20.630Z,99271.50
2022-09-20T00:56:48.450Z,99266.56
2022-09-20T00:59:20.394Z,99270.56
2022-09-20T01:01:59.266Z,99269.59
2022-09-20T01:04:28.121Z,99269.56
2022-09-20T01:06:58.542Z,99266.16
2022-09-20T01:09:25.134Z,99269.94
2022-09-20T01:11:55.567Z,99263.84
2022-09-20T01:14:24.056Z,99258.25
2022-09-20T01:16:55.280Z,99261.00
2022-09-20T01:20:09.880Z,99262.47
2022-09-20T01:23:07.269Z,99257.53
2022-09-20T01:26:22.022Z,99261.59
2022-09-20T01:29:01.206Z,99255.16
2022-09-20T01:31:36.446Z,99261.78
2022-09-20T01:34:15.318Z,99265.28
2022-09-20T01:36:55.618Z,99258.63
2022-09-20T01:39:52.136Z,99255.28
2022-09-20T01:42:18.942Z,99257.97
2022-09-20T01:45:11.006Z,99262.00
2022-09-20T01:48:27.338Z,99255.94
2022-09-20T01:51:49.239Z,99252.19
2022-09-20T01:54:52.148Z,99261.31
2022-09-20T01:57:50.226Z,99260.66
2022-09-20T02:00:23.875Z,99265.78
2022-09-20T02:03:22.066Z,99262.94
2022-09-20T02:06:19.933Z,99260.31
2022-09-20T02:09:20.424Z,99268.28
2022-09-20T02:11:52.595Z,99257.53
2022-09-20T02:14:41.667Z,99271.09
2022-09-20T02:17:22.690Z,99272.63
2022-09-20T02:20:01.923Z,99276.38
2022-09-20T02:23:12.532Z,99274.06
2022-09-20T02:26:06.040Z,99270.34
2022-09-20T02:28:55.969Z,99271.03
2022-09-20T02:32:01.924Z,99267.47
2022-09-20T02:35:03.327Z,99277.47
2022-09-20T02:37:54.627Z,99265.81
2022-09-20T02:41:00.134Z,99261.25
2022-09-20T02:44:10.871Z,99263.88
2022-09-20T02:47:00.021Z,99250.75
2022-09-20T02:49:29.947Z,99251.50
2022-09-20T02:52:04.707Z,99255.66
2022-09-20T02:54:51.658Z,99247.72
2022-09-20T02:57:52.701Z,99249.78
2022-09-20T03:00:54.682Z,99264.91
2022-09-20T03:03:30.312Z,99254.31
2022-09-20T03:06:15.376Z,99257.53
2022-09-20T03:08:58.307Z,99256.03
2022-09-20T03:11:32.634Z,99256.03
2022-09-20T03:14:36.987Z,99255.25
2022-09-20T03:17:27.459Z,99250.91
2022-09-20T03:20:19.759Z,99261.31
2022-09-20T03:23:24.137Z,99265.44
2022-09-20T03:26:07.943Z,99270.91
2022-09-20T03:29:48.143Z,99275.22
2022-09-20T03:32:45.431Z,99269.41
2022-09-20T03:35:31.259Z,99271.13
2022-09-20T03:38:41.338Z,99275.84
2022-09-20T03:41:29.223Z,99270.38
2022-09-20T03:44:35.011Z,99291.50
2022-09-20T03:47:37.351Z,99286.78
2022-09-20T03:50:30.055Z,99285.47
2022-09-20T03:53:20.035Z,99286.56
2022-09-20T03:56:27.562Z,99287.53
2022-09-20T03:59:24.866Z,99288.50
2022-09-20T04:02:10.926Z,99292.63
2022-09-20T04:05:03.799Z,99288.09
2022-09-20T04:08:12.505Z,99299.41
2022-09-20T04:11:17.087Z,99297.53
2022-09-20T04:13:56.785Z,99305.69
2022-09-20T04:16:58.651Z,99302.84
2022-09-20T04:19:36.446Z,99308.69
2022-09-20T04:22:05.509Z,99302.09
2022-09-20T04:24:45.982Z,99301.69
2022-09-20T04:27:15.459Z,99296.22
2022-09-20T04:30:22.098Z,99299.25
2022-09-20T04:33:05.387Z,99293.97
2022-09-20T04:36:14.459Z,99291.50
2022-09-20T04:38:41.683Z,99296.41
2022-09-20T04:41:39.551Z,99296.41
2022-09-20T04:44:38.771Z,99299.81
2022-09-20T04:47:42.543Z,99294.50
2022-09-20T04:50:48.566Z,99300.94
2022-09-20T04:53:32.838Z,99305.06
2022-09-20T04:56:41.400Z,99297.88
2022-09-20T04:59:10.769Z,99300.91
2022-09-20T05:01:55.599Z,99296.91
2022-09-20T05:05:02.096Z,99303.84
2022-09-20T05:07:52.536Z,99307.78
2022-09-20T05:10:59.856Z,99306.06
2022-09-20T05:14:12.871Z,99299.63
2022-09-20T05:17:14.743Z,99301.53
2022-09-20T05:20:06.164Z,99309.81
2022-09-20T05:22:53.972Z,99315.72
2022-09-20T05:25:51.976Z,99317.69
2022-09-20T05:28:45.192Z,99319.59
2022-09-20T05:31:38.117Z,99324.00
2022-09-20T05:34:22.807Z,99322.72
2022-09-20T05:37:10.538Z,99321.78
2022-09-20T05:39:53.355Z,99325.38
2022-09-20T05:42:43.873Z,99333.34
2022-09-20T05:46:01.709Z,99334.25
2022-09-20T05:49:07.063Z,99339.22
2022-09-20T05:51:58.684Z,99340.13
2022-09-20T05:54:47.793Z,99342.38
2022-09-20T05:58:05.499Z,99350.53
2022-09-20T06:01:07.489Z,99357.75
2022-09-20T06:03:43.324Z,99355.66
2022-09-20T06:06:22.991Z,99360.78
2022-09-20T06:09:11.236Z,99362.69
2022-09-20T06:12:16.935Z,99368.13
2022-09-20T06:14:59.955Z,99358.84
2022-09-20T06:17:48.399Z,99368.44
2022-09-20T06:20:38.895Z,99372.56
2022-09-20T06:23:06.030Z,99370.81
2022-09-20T06:25:49.697Z,99372.13
2022-09-20T06:28:27.603Z,99369.44
2022-09-20T06:30:55.726Z,99375.31
2022-09-20T06:33:25.619Z,99376.53
2022-09-20T06:36:24.012Z,99370.63
2022-09-20T06:39:41.523Z,99373.16
2022-09-20T06:42:09.961Z,99368.06
2022-09-20T06:44:41.188Z,99363.22
2022-09-20T06:47:11.509Z,99374.16
2022-09-20T06:49:39.574Z,99377.66
2022-09-20T06:52:08.175Z,99373.88
2022-09-20T06:54:34.953Z,99372.28
2022-09-20T06:57:06.018Z,99386.22
2022-09-20T06:59:32.993Z,99380.66
2022-09-20T07:01:59.646Z,99377.63
2022-09-20T07:04:26.834Z,99389.09
2022-09-20T07:07:09.310Z,99382.34
2022-09-20T07:09:36.447Z,99388.22
2022-09-20T07:12:03.499Z,99378.13
2022-09-20T07:14:30.119Z,99383.66
2022-09-20T07:17:00.816Z,99385.06
2022-09-20T07:19:27.450Z,99386.09
2022-09-20T07:21:54.238Z,99384.75
2022-09-20T07:24:20.931Z,99390.28
2022-09-20T07:27:01.780Z,99397.13
2022-09-20T07:29:29.754Z,99394.78
2022-09-20T07:31:57.297Z,99394.78
2022-09-20T07:34:24.277Z,99395.63
2022-09-20T07:36:51.245Z,99397.53
2022-09-20T07:39:18.578Z,99397.56
2022-09-20T07:41:50.520Z,99396.72
2022-09-20T07:44:21.288Z,99397.03
2022-09-20T07:46:57.972Z,99398.31
2022-09-20T07:49:26.413Z,99409.97
2022-09-20T07:51:53.912Z,99406.44
2022-09-20T07:54:21.243Z,99406.47
2022-09-20T07:56:48.462Z,99408.16
2022-09-20T07:59:15.924Z,99419.09
2022-09-20T08:01:43.228Z,99419.53
2022-09-20T08:04:10.420Z,99414.38
2022-09-20T08:06:39.298Z,99418.41
2022-09-20T08:09:11.097Z,99416.88
2022-09-20T08:11:39.350Z,99414.25
2022-09-20T08:14:08.563Z,99420.00
2022-09-20T08:16:42.827Z,99423.53
2022-09-20T08:19:17.186Z,99427.81
2022-09-20T08:21:44.682Z,99435.84
2022-09-20T08:24:11.648Z,99433.47
2022-09-20T08:26:38.353Z,99436.28
2022-09-20T08:29:06.141Z,99434.06
2022-09-20T08:31:37.207Z,99436.41
2022-09-20T08:34:06.585Z,99431.94
2022-09-20T08:36:37.241Z,99428.06
2022-09-20T08:42:20.345Z,99425.75
2022-09-20T08:45:00.078Z,99427.31
2022-09-20T08:47:31.555Z,99424.38
2022-09-20T08:50:00.952Z,99422.94
2022-09-20T08:52:39.403Z,99424.88
2022-09-20T08:55:36.524Z,99415.63
2022-09-20T08:58:08.220Z,99424.69
2022-09-20T09:00:38.167Z,99427.28
2022-09-20T09:03:17.100Z,99427.28
2022-09-20T09:05:53.473Z,99434.50
2022-09-20T09:08:28.443Z,99435.03
2022-09-20T09:11:09.848Z,99438.59
2022-09-20T09:14:41.448Z,99437.38
2022-09-20T09:17:11.936Z,99435.28
2022-09-20T09:19:57.095Z,99438.53
2022-09-20T09:22:38.160Z,99438.50
2022-09-20T09:25:19.827Z,99444.34
2022-09-20T09:28:14.213Z,99445.56
2022-09-20T09:30:44.210Z,99434.41
2022-09-20T09:33:19.950Z,99430.72
2022-09-20T09:36:14.894Z,99433.81
2022-09-20T09:38:46.998Z,99430.78
2022-09-20T09:41:35.562Z,99429.41
2022-09-20T09:44:24.536Z,99435.44
2022-09-20T09:47:00.308Z,99429.91
2022-09-20T09:49:34.038Z,99422.75
2022-09-20T09:52:24.502Z,99415.38
2022-09-20T09:54:55.030Z,99427.53
2022-09-20T09:57:59.647Z,99421.81
2022-09-20T10:00:27.155Z,99420.09
2022-09-20T10:03:23.337Z,99415.56
2022-09-20T10:06:36.925Z,99414.84
2022-09-20T10:09:33.640Z,99415.69
2022-09-20T10:12:20.600Z,99412.16
2022-09-20T10:15:18.304Z,99409.47
2022-09-20T10:18:12.129Z,99416.41
2022-09-20T10:21:08.314Z,99416.75
2022-09-20T10:24:02.494Z,99425.28
2022-09-20T10:26:45.734Z,99420.03
2022-09-20T10:29:41.774Z,99417.13
2022-09-20T10:32:55.743Z,99420.97
2022-09-20T10:35:52.363Z,99411.59
2022-09-20T10:38:40.993Z,99412.25
2022-09-20T10:41:39.436Z,99410.50
2022-09-20T10:44:19.226Z,99405.22
2022-09-20T10:47:14.027Z,99399.50
2022-09-20T10:49:41.914Z,99396.94
2022-09-20T10:52:59.640Z,99398.88
2022-09-20T10:55:49.476Z,99403.06
2022-09-20T10:58:40.192Z,99399.78
2022-09-20T11:01:29.917Z,99387.63
2022-09-20T11:04:17.453Z,99389.28
2022-09-20T11:07:07.303Z,99393.84
2022-09-20T11:09:41.791Z,99387.03
2022-09-20T11:12:39.417Z,99396.72
2022-09-20T11:15:19.307Z,99407.16
2022-09-20T11:18:23.440Z,99404.91
2022-09-20T11:21:19.934Z,99402.50
2022-09-20T11:24:20.387Z,99411.81
2022-09-20T11:26:55.778Z,99406.97
2022-09-20T11:29:32.238Z,99410.44
2022-09-20T11:32:21.888Z,99418.97
2022-09-20T11:35:02.122Z,99413.28
2022-09-20T11:38:03.506Z,99427.03
2022-09-20T11:40:37.474Z,99421.25
2022-09-20T11:43:08.207Z,99416.28
2022-09-20T11:45:38.857Z,99405.69
2022-09-20T11:48:23.532Z,99418.09
2022-09-20T11:51:12.896Z,99411.22
2022-09-20T11:54:19.340Z,99413.84
2022-09-20T11:56:56.557Z,99415.31
2022-09-20T11:59:30.361Z,99416.84
2022-09-20T12:02:00.228Z,99411.41
2022-09-20T12:04:33.724Z,99416.53
2022-09-20T12:07:18.593Z,99415.09
2022-09-20T12:09:54.321Z,99414.56
2022-09-20T12:12:41.848Z,99414.78
2022-09-20T12:15:36.924Z,99412.56
2022-09-20T12:18:12.304Z,99412.31
2022-09-20T12:20:38.882Z,99403.84
2022-09-20T12:23:40.226Z,99409.56
2022-09-20T12:26:41.151Z,99396.31
2022-09-20T12:29:34.005Z,99402.91
2022-09-20T12:32:03.135Z,99407.16
2022-09-20T12:34:36.813Z,99408.06
2022-09-20T12:37:04.576Z,99406.78
2022-09-20T12:39:38.928Z,99403.31
2022-09-20T12:42:11.636Z,99390.22
2022-09-20T12:44:49.127Z,99389.34
2022-09-20T12:47:22.392Z,99389.31
2022-09-20T12:50:09.809Z,99386.63
2022-09-20T12:52:53.585Z,99381.84
2022-09-20T12:55:32.703Z,99386.63
2022-09-20T12:58:32.227Z,99382.84
2022-09-20T13:01:04.899Z,99381.59
2022-09-20T13:03:38.391Z,99389.09
2022-09-20T13:06:14.665Z,99387.94
2022-09-20T13:08:52.294Z,99378.69
2022-09-20T13:11:40.225Z,99381.75
2022-09-20T13:14:23.483Z,99384.00
2022-09-20T13:17:20.951Z,99388.03
2022-09-20T13:19:49.919Z,99387.63
2022-09-20T13:22:33.121Z,99390.19
2022-09-20T13:25:04.332Z,99393.38
2022-09-20T13:27:51.459Z,99388.81
2022-09-20T13:30:35.137Z,99393.34
2022-09-20T13:33:23.802Z,99389.56
2022-09-20T13:35:56.826Z,99396.31
2022-09-20T13:38:29.815Z,99403.31
2022-09-20T13:41:12.839Z,99397.81
2022-09-20T13:43:46.277Z,99389.72
2022-09-20T13:46:22.073Z,99396.84
2022-09-20T13:49:12.613Z,99387.72
2022-09-20T13:51:39.724Z,99384.63
2022-09-20T13:54:31.091Z,99395.22
2022-09-20T13:57:05.068Z,99389.97
2022-09-20T13:59:41.558Z,99391.13
2022-09-20T14:02:24.522Z,99395.44
2022-09-20T14:04:55.976Z,99398.47
2022-09-20T14:07:28.008Z,99407.50
2022-09-20T14:09:56.528Z,99405.78
2022-09-20T14:12:25.041Z,99404.81
2022-09-20T14:14:52.495Z,99405.94
2022-09-20T14:17:23.018Z,99405.81
2022-09-20T14:19:54.333Z,99395.81
2022-09-20T14:22:27.185Z,99396.94
2022-09-20T14:25:12.213Z,99401.44
2022-09-20T14:27:38.945Z,99401.81
2022-09-20T14:30:07.351Z,99398.53
2022-09-20T14:32:41.992Z,99396.81
2022-09-20T14:35:18.424Z,99394.78
2022-09-20T14:38:10.139Z,99411.28
2022-09-20T14:40:48.397Z,99412.88
2022-09-20T14:43:33.713Z,99403.63
2022-09-20T14:46:04.687Z,99411.88
2022-09-20T14:48:42.855Z,99400.28
2022-09-20T14:51:23.257Z,99394.94
2022-09-20T14:54:12.765Z,99389.88
2022-09-20T14:56:47.613Z,99404.19
2022-09-20T14:59:17.165Z,99397.84
2022-09-20T15:01:59.215Z,99397.72
2022-09-20T15:04:28.398Z,99400.16
2022-09-20T15:06:56.914Z,99395.53
2022-09-20T15:09:23.722Z,99403.31
2022-09-20T15:12:04.491Z,99405.16
2022-09-20T15:14:36.524Z,99395.16
2022-09-20T15:17:04.477Z,99391.94
2022-09-20T15:19:31.034Z,99404.38
2022-09-20T15:21:57.718Z,99398.66
2022-09-20T15:24:24.542Z,99400.53
2022-09-20T15:26:51.096Z,99410.47
2022-09-20T15:29:18.658Z,99410.13
2022-09-20T15:31:48.170Z,99412.41
2022-09-20T15:34:16.034Z,99414.50
2022-09-20T15:36:43.546Z,99423.69
2022-09-20T15:39:10.513Z,99432.81
2022-09-20T15:41:37.925Z,99440.91
2022-09-20T15:44:05.389Z,99438.53
2022-09-20T15:46:32.269Z,99453.53
2022-09-20T15:49:03.772Z,99456.84
2022-09-20T15:51:30.707Z,99457.00
2022-09-20T15:54:07.433Z,99448.53
2022-09-20T15:56:37.152Z,99453.06
2022-09-20T15:59:06.857Z,99444.16
2022-09-20T16:01:42.274Z,99452.25
2022-09-20T16:04:11.263Z,99453.72
2022-09-20T16:06:41.270Z,99447.31
2022-09-20T16:09:08.961Z,99446.03
2022-09-20T16:11:36.778Z,99441.94
2022-09-20T16:14:04.152Z,99442.50
2022-09-20T16:16:37.436Z,99436.47
2022-09-20T16:19:20.445Z,99443.38
2022-09-20T16:21:55.070Z,99441.88
2022-09-20T16:24:26.803Z,99437.09
2022-09-20T16:26:54.050Z,99443.75
2022-09-20T16:29:22.029Z,99443.22
2022-09-20T16:31:53.700Z,99439.38
2022-09-20T16:34:21.526Z,99443.38
2022-09-20T16:36:50.834Z,99453.00
2022-09-20T16:39:19.534Z,99447.97
2022-09-20T16:41:48.097Z,99446.91
2022-09-20T16:44:15.672Z,99448.09
2022-09-20T16:46:42.247Z,99450.75
2022-09-20T16:49:12.347Z,99456.03
2022-09-20T16:51:43.335Z,99456.41
2022-09-20T16:54:15.787Z,99453.63
2022-09-20T16:56:46.279Z,99461.84
2022-09-20T16:59:15.653Z,99451.13
2022-09-20T17:01:43.980Z,99470.72
2022-09-20T17:04:14.172Z,99458.00
2022-09-20T17:06:43.281Z,99463.69
2022-09-20T17:09:10.920Z,99448.22
2022-09-20T17:11:41.667Z,99452.81
2022-09-20T17:14:09.460Z,99453.66
2022-09-20T17:16:39.576Z,99456.16
2022-09-20T17:19:10.883Z,99457.16
2022-09-20T17:21:43.283Z,99463.69
2022-09-20T17:24:10.176Z,99467.97
2022-09-20T17:26:40.117Z,99470.38
2022-09-20T17:29:10.196Z,99481.44
2022-09-20T17:31:41.566Z,99479.19
2022-09-20T17:34:11.424Z,99484.47
2022-09-20T17:36:43.640Z,99484.22
2022-09-20T17:39:13.099Z,99486.91
2022-09-20T17:41:46.467Z,99493.50
2022-09-20T17:44:14.036Z,99495.28
2022-09-20T17:46:43.796Z,99503.81
2022-09-20T17:49:18.109Z,99502.38
2022-09-20T17:51:55.455Z,99501.22
2022-09-20T17:54:24.204Z,99502.31
2022-09-20T17:56:53.428Z,99499.97
2022-09-20T17:59:20.923Z,99510.41
2022-09-20T18:01:50.889Z,99507.19
2022-09-20T18:04:18.353Z,99512.06
2022-09-20T18:06:48.478Z,99515.78
2022-09-20T18:09:21.632Z,99514.25
2022-09-20T18:11:53.616Z,99520.25
2022-09-20T18:14:23.957Z,99514.56
2022-09-20T18:16:53.565Z,99526.75
2022-09-20T18:19:22.404Z,99531.75
2022-09-20T18:21:49.121Z,99529.91
2022-09-20T18:24:15.872Z,99538.47
2022-09-20T18:26:42.492Z,99535.13
2022-09-20T18:29:14.195Z,99542.97
2022-09-20T18:31:45.963Z,99550.00
2022-09-20T18:34:19.133Z,99549.00
2022-09-20T18:36:57.034Z,99548.63
2022-09-20T18:39:26.479Z,99554.91
2022-09-20T18:41:53.627Z,99552.31
2022-09-20T18:44:22.337Z,99552.19
2022-09-20T18:46:50.961Z,99551.91
2022-09-20T18:49:17.725Z,99556.31
2022-09-20T18:51:45.358Z,99559.53
2022-09-20T18:54:12.303Z,99566.47
2022-09-20T18:56:46.985Z,99558.34
2022-09-20T18:59:20.854Z,99569.00
2022-09-20T19:02:17.248Z,99574.69
2022-09-20T19:05:06.621Z,99572.94
2022-09-20T19:07:39.243Z,99581.22
2022-09-20T19:10:05.799Z,99583.16
2022-09-20T19:12:59.840Z,99587.41
2022-09-20T19:16:07.185Z,99589.44
2022-09-20T19:19:26.601Z,99596.38
2022-09-20T19:22:18.502Z,99608.50
2022-09-20T19:25:13.961Z,99605.78
2022-09-20T19:27:41.314Z,99618.19
2022-09-20T19:30:13.158Z,99616.28
2022-09-20T19:32:40.199Z,99618.41
2022-09-20T19:35:19.463Z,99623.88
2022-09-20T19:38:15.370Z,99635.28
2022-09-20T19:41:08.786Z,99634.38
2022-09-20T19:44:18.181Z,99626.94
2022-09-20T19:47:07.132Z,99624.31
2022-09-20T19:49:55.640Z,99626.91
2022-09-20T19:52:23.734Z,99631.31
2022-09-20T19:54:51.212Z,99632.59
2022-09-20T19:57:42.940Z,99631.44
2022-09-20T20:00:20.208Z,99639.19
2022-09-20T20:02:47.656Z,99637.81
2022-09-20T20:05:18.488Z,99641.66
2022-09-20T20:08:18.693Z,99646.00
2022-09-20T20:11:03.529Z,99654.19
2022-09-20T20:14:12.333Z,99651.50
2022-09-20T20:17:05.134Z,99655.69
2022-09-20T20:20:07.694Z,99652.09
2022-09-20T20:23:28.326Z,99646.03
2022-09-20T20:26:19.230Z,99653.41
2022-09-20T20:28:45.915Z,99661.00
2022-09-20T20:31:13.043Z,99648.69
2022-09-20T20:33:39.914Z,99653.25
2022-09-20T20:36:11.842Z,99650.56
2022-09-20T20:38:46.235Z,99655.56
2022-09-20T20:41:15.686Z,99662.56
2022-09-20T20:43:45.186Z,99656.13
2022-09-20T20:46:15.429Z,99663.34
2022-09-20T20:48:42.564Z,99661.06
2022-09-20T20:51:12.652Z,99667.44
2022-09-20T20:53:46.885Z,99672.19
2022-09-20T20:56:28.433Z,99670.56
2022-09-20T20:59:00.358Z,99669.03
2022-09-20T21:01:42.622Z,99671.13
2022-09-20T21:04:11.240Z,99668.66
2022-09-20T21:06:40.641Z,99666.41
2022-09-20T21:09:09.536Z,99670.00
2022-09-20T21:11:40.168Z,99669.38
2022-09-20T21:14:07.262Z,99673.00
2022-09-20T21:16:37.345Z,99674.72
2022-09-20T21:19:05.814Z,99672.63
2022-09-20T21:21:36.108Z,99667.13
2022-09-20T21:24:06.197Z,99674.72
2022-09-20T21:26:35.202Z,99670.16
2022-09-20T21:29:05.408Z,99680.38
2022-09-20T21:31:36.016Z,99676.59
2022-09-20T21:34:06.568Z,99679.59
2022-09-20T21:36:34.728Z,99682.97
2022-09-20T21:39:01.392Z,99683.56
2022-09-20T21:41:31.468Z,99684.47
2022-09-20T21:44:00.944Z,99684.28
2022-09-20T21:46:42.015Z,99679.94
2022-09-20T21:49:11.919Z,99683.75
2022-09-20T21:51:41.316Z,99676.13
2022-09-20T21:54:08.366Z,99683.81
2022-09-20T21:56:37.499Z,99682.47
2022-09-20T21:59:06.113Z,99689.81
2022-09-20T22:01:35.910Z,99684.75
2022-09-20T22:04:11.567Z,99687.72
2022-09-20T22:06:45.275Z,99682.91
2022-09-20T22:09:17.109Z,99694.09
2022-09-20T22:11:46.915Z,99685.84
2022-09-20T22:14:16.353Z,99692.63
2022-09-20T22:16:45.301Z,99680.53
2022-09-20T22:19:16.304Z,99693.34
2022-09-20T22:21:47.716Z,99693.34
2022-09-20T22:24:16.060Z,99699.38
2022-09-20T22:26:46.491Z,99688.31
2022-09-20T22:29:14.368Z,99690.06
2022-09-20T22:31:46.555Z,99689.97
2022-09-20T22:34:31.124Z,99689.59
2022-09-20T22:36:57.720Z,99687.38
2022-09-20T22:39:24.308Z,99693.88
2022-09-20T22:41:51.292Z,99698.97
2022-09-20T22:44:17.884Z,99696.66
2022-09-20T22:46:44.459Z,99694.66
2022-09-20T22:49:11.048Z,99699.22
2022-09-20T22:51:38.175Z,99693.91
2022-09-20T22:54:08.378Z,99698.09
2022-09-20T22:56:36.189Z,99692.88
2022-09-20T22:59:15.040Z,99704.16
2022-09-20T23:01:46.896Z,99696.44
2022-09-20T23:04:18.793Z,99698.59
2022-09-20T23:06:54.680Z,99692.75
2022-09-20T23:09:24.602Z,99700.31
2022-09-20T23:11:51.343Z,99700.63
2022-09-20T23:14:20.902Z,99700.44
2022-09-20T23:16:48.432Z,99699.28
2022-09-20T23:19:15.992Z,99703.00
2022-09-20T23:21:43.603Z,99700.75
2022-09-20T23:24:13.268Z,99705.63
2022-09-20T23:26:41.587Z,99701.91
2022-09-20T23:29:12.344Z,99696.53
2022-09-20T23:31:45.580Z,99704.81
2022-09-20T23:34:14.162Z,99704.34
2022-09-20T23:36:42.336Z,99705.81
2022-09-20T23:39:10.484Z,99705.56
2022-09-20T23:41:37.939Z,99707.16
2022-09-20T23:44:06.399Z,99704.09
2022-09-20T23:46:33.922Z,99699.16
2022-09-20T23:49:01.024Z,99704.25
2022-09-20T23:51:29.288Z,99701.91
2022-09-20T23:53:56.088Z,99706.19
2022-09-20T23:56:23.620Z,99701.25
2022-09-20T23:58:50.987Z,99699.97
